createdAt,value
2017-07-03T00:02:16.349Z,14.80
2017-07-03T00:04:44.771Z,14.80
2017-07-03T00:07:13.407Z,14.80
2017-07-03T00:09:41.839Z,14.70
2017-07-03T00:12:10.271Z,14.70
2017-07-03T00:14:38.712Z,14.60
2017-07-03T00:17:07.256Z,14.70
2017-07-03T00:19:35.685Z,14.70
2017-07-03T00:22:04.171Z,14.80
2017-07-03T00:24:32.640Z,14.80
2017-07-03T00:27:01.301Z,14.70
2017-07-03T00:29:29.728Z,14.70
2017-07-03T00:31:59.070Z,14.70
2017-07-03T00:34:27.517Z,14.70
2017-07-03T00:36:55.935Z,14.70
2017-07-03T00:39:24.380Z,14.60
2017-07-03T00:41:53.574Z,14.70
2017-07-03T00:44:21.991Z,14.70
2017-07-03T00:46:50.504Z,14.70
2017-07-03T00:49:18.941Z,14.70
2017-07-03T00:51:48.146Z,14.70
2017-07-03T00:54:16.591Z,14.70
2017-07-03T00:56:45.238Z,14.70
2017-07-03T00:59:13.671Z,14.70
2017-07-03T01:01:42.858Z,14.70
2017-07-03T01:04:11.303Z,14.60
2017-07-03T01:06:39.730Z,14.60
2017-07-03T01:09:08.926Z,14.60
2017-07-03T01:11:37.399Z,14.50
2017-07-03T01:14:05.918Z,14.50
2017-07-03T01:16:34.355Z,14.60
2017-07-03T01:19:02.791Z,14.60
2017-07-03T01:21:31.219Z,14.60
2017-07-03T01:23:59.651Z,14.60
2017-07-03T01:26:28.198Z,14.60
2017-07-03T01:28:56.647Z,14.70
2017-07-03T01:31:25.734Z,14.60
2017-07-03T01:33:54.152Z,14.70
2017-07-03T01:36:22.587Z,14.60
2017-07-03T01:38:51.151Z,14.60
2017-07-03T01:41:20.355Z,14.60
2017-07-03T01:43:48.478Z,14.60
2017-07-03T01:46:16.980Z,14.70
2017-07-03T01:48:45.404Z,14.70
2017-07-03T01:51:13.849Z,14.60
2017-07-03T01:53:42.271Z,14.60
2017-07-03T01:56:12.167Z,14.60
2017-07-03T01:58:41.358Z,14.60
2017-07-03T02:01:10.471Z,14.50
2017-07-03T02:03:38.911Z,14.50
2017-07-03T02:06:07.390Z,14.50
2017-07-03T02:08:35.815Z,14.50
2017-07-03T02:11:04.267Z,14.60
2017-07-03T02:13:33.544Z,14.50
2017-07-03T02:16:02.676Z,14.50
2017-07-03T02:18:31.871Z,14.50
2017-07-03T02:21:00.351Z,14.40
2017-07-03T02:23:29.563Z,14.50
2017-07-03T02:25:58.743Z,14.40
2017-07-03T02:28:27.188Z,14.40
2017-07-03T02:30:55.608Z,14.40
2017-07-03T02:33:24.051Z,14.40
2017-07-03T02:35:52.471Z,14.40
2017-07-03T02:38:20.914Z,14.30
2017-07-03T02:40:49.367Z,14.30
2017-07-03T02:43:17.811Z,14.30
2017-07-03T02:45:46.252Z,14.20
2017-07-03T02:48:14.689Z,14.20
2017-07-03T02:50:43.120Z,14.20
2017-07-03T02:53:11.547Z,14.10
2017-07-03T02:55:40.759Z,14.00
2017-07-03T02:58:09.961Z,14.00
2017-07-03T03:00:39.157Z,13.90
2017-07-03T03:03:08.359Z,13.90
2017-07-03T03:05:37.548Z,14.00
2017-07-03T03:08:06.750Z,14.00
2017-07-03T03:10:35.990Z,14.10
2017-07-03T03:13:04.399Z,14.10
2017-07-03T03:15:32.836Z,14.10
2017-07-03T03:18:02.716Z,14.10
2017-07-03T03:20:31.155Z,14.10
2017-07-03T03:22:59.684Z,14.20
2017-07-03T03:25:28.862Z,14.30
2017-07-03T03:27:57.309Z,14.20
2017-07-03T03:30:25.822Z,14.30
2017-07-03T03:32:54.275Z,14.30
2017-07-03T03:35:22.711Z,14.30
2017-07-03T03:37:51.909Z,14.30
2017-07-03T03:40:21.102Z,14.30
2017-07-03T03:42:49.548Z,14.30
2017-07-03T03:45:17.979Z,14.30
2017-07-03T03:47:47.239Z,14.40
2017-07-03T03:50:15.666Z,14.30
2017-07-03T03:52:44.860Z,14.40
2017-07-03T03:55:14.062Z,14.30
2017-07-03T03:57:42.500Z,14.30
2017-07-03T04:00:10.914Z,14.30
2017-07-03T04:02:40.122Z,14.40
2017-07-03T04:05:09.317Z,14.40
2017-07-03T04:07:38.574Z,14.50
2017-07-03T04:10:06.987Z,14.40
2017-07-03T04:12:35.625Z,14.50
2017-07-03T04:15:04.031Z,14.50
2017-07-03T04:17:32.523Z,14.50
2017-07-03T04:20:00.974Z,14.60
2017-07-03T04:22:29.535Z,14.60
2017-07-03T04:24:57.960Z,14.60
2017-07-03T04:27:26.439Z,14.70
2017-07-03T04:29:54.870Z,14.70
2017-07-03T04:32:23.350Z,14.60
2017-07-03T04:34:52.535Z,14.70
2017-07-03T04:37:21.650Z,14.70
2017-07-03T04:39:50.856Z,14.90
2017-07-03T04:42:19.448Z,14.90
2017-07-03T04:44:47.875Z,14.90
2017-07-03T04:47:16.327Z,14.90
2017-07-03T04:49:44.751Z,15.10
2017-07-03T04:52:13.346Z,15.20
2017-07-03T04:54:42.555Z,15.20
2017-07-03T04:57:11.865Z,15.30
2017-07-03T04:59:41.072Z,15.50
2017-07-03T05:02:09.527Z,15.50
2017-07-03T05:04:37.952Z,15.60
2017-07-03T05:07:06.490Z,15.70
2017-07-03T05:09:35.689Z,15.80
2017-07-03T05:12:04.123Z,15.90
2017-07-03T05:14:32.572Z,15.90
2017-07-03T05:17:01.760Z,15.70
2017-07-03T05:19:30.962Z,15.70
2017-07-03T05:22:00.161Z,15.60
2017-07-03T05:24:29.575Z,15.70
2017-07-03T05:26:58.007Z,15.60
2017-07-03T05:29:26.420Z,15.70
2017-07-03T05:31:55.543Z,15.70
2017-07-03T05:34:24.378Z,15.80
2017-07-03T05:36:52.845Z,15.80
2017-07-03T05:39:21.286Z,15.90
2017-07-03T05:41:50.502Z,16.00
2017-07-03T05:44:24.552Z,16.10
2017-07-03T05:46:52.999Z,16.10
2017-07-03T05:49:21.454Z,16.10
2017-07-03T05:51:50.639Z,16.20
2017-07-03T05:54:19.087Z,16.10
2017-07-03T05:56:47.528Z,16.30
2017-07-03T05:59:16.712Z,16.50
2017-07-03T06:01:46.028Z,16.70
2017-07-03T06:04:14.471Z,16.70
2017-07-03T06:06:42.897Z,16.70
2017-07-03T06:09:11.456Z,16.80
2017-07-03T06:11:39.875Z,16.70
2017-07-03T06:14:08.325Z,17.00
2017-07-03T06:16:37.540Z,17.00
2017-07-03T06:19:06.804Z,16.70
2017-07-03T06:21:37.011Z,16.70
2017-07-03T06:24:05.459Z,16.80
2017-07-03T06:26:33.884Z,17.10
2017-07-03T06:29:02.338Z,17.20
2017-07-03T06:31:31.631Z,17.50
2017-07-03T06:34:00.055Z,17.70
2017-07-03T06:36:28.476Z,18.00
2017-07-03T06:38:56.916Z,18.10
2017-07-03T06:41:25.360Z,18.00
2017-07-03T06:43:53.850Z,18.10
2017-07-03T06:46:22.275Z,18.00
2017-07-03T06:48:50.711Z,17.60
2017-07-03T06:51:19.138Z,17.50
2017-07-03T06:53:48.426Z,17.70
2017-07-03T06:56:16.855Z,17.70
2017-07-03T06:58:45.279Z,17.50
2017-07-03T07:01:13.745Z,17.40
2017-07-03T07:03:42.169Z,17.40
2017-07-03T07:06:11.379Z,17.80
2017-07-03T07:08:40.561Z,17.80
2017-07-03T07:11:09.003Z,17.80
2017-07-03T07:13:37.459Z,17.80
2017-07-03T07:16:05.886Z,17.70
2017-07-03T07:18:34.339Z,17.60
2017-07-03T07:21:02.776Z,17.50
2017-07-03T07:23:31.983Z,17.50
2017-07-03T07:26:01.180Z,17.60
2017-07-03T07:28:30.378Z,17.80
2017-07-03T07:30:59.598Z,18.10
2017-07-03T07:33:28.792Z,18.30
2017-07-03T07:35:57.987Z,18.50
2017-07-03T07:38:27.172Z,18.50
2017-07-03T07:40:56.500Z,18.90
2017-07-03T07:43:25.035Z,18.80
2017-07-03T07:45:53.558Z,19.10
2017-07-03T07:48:22.159Z,19.10
2017-07-03T07:50:50.583Z,18.70
2017-07-03T07:53:19.043Z,18.70
2017-07-03T07:55:47.526Z,18.70
2017-07-03T07:58:15.980Z,18.80
2017-07-03T08:00:44.403Z,18.90
2017-07-03T08:03:12.862Z,19.00
2017-07-03T08:05:41.355Z,19.60
2017-07-03T08:08:09.817Z,19.50
2017-07-03T08:10:38.244Z,19.80
2017-07-03T08:13:06.690Z,19.70
2017-07-03T08:15:35.106Z,20.00
2017-07-03T08:18:03.727Z,20.10
2017-07-03T08:20:32.955Z,20.60
2017-07-03T08:23:01.387Z,20.60
2017-07-03T08:25:29.887Z,20.40
2017-07-03T08:27:59.107Z,20.50
2017-07-03T08:30:27.639Z,20.50
2017-07-03T08:32:56.060Z,20.50
2017-07-03T08:35:24.511Z,20.50
2017-07-03T08:37:52.963Z,20.20
2017-07-03T08:40:21.406Z,19.80
2017-07-03T08:42:49.835Z,19.80
2017-07-03T08:45:18.281Z,19.80
2017-07-03T08:47:46.886Z,20.10
2017-07-03T08:50:15.324Z,20.40
2017-07-03T08:52:44.506Z,20.70
2017-07-03T08:55:13.040Z,20.70
2017-07-03T08:57:41.527Z,20.50
2017-07-03T09:00:10.179Z,20.50
2017-07-03T09:02:38.611Z,20.40
2017-07-03T09:05:07.081Z,20.50
2017-07-03T09:07:35.503Z,20.60
2017-07-03T09:10:03.959Z,21.00
2017-07-03T09:12:32.407Z,21.00
2017-07-03T09:15:00.832Z,21.10
2017-07-03T09:17:29.353Z,21.10
2017-07-03T09:19:58.535Z,21.20
2017-07-03T09:22:27.815Z,20.70
2017-07-03T09:24:56.261Z,20.60
2017-07-03T09:27:24.687Z,21.10
2017-07-03T09:29:52.792Z,21.00
2017-07-03T09:32:21.972Z,21.30
2017-07-03T09:34:51.239Z,21.50
2017-07-03T09:37:19.660Z,21.50
2017-07-03T09:39:48.847Z,21.10
2017-07-03T09:42:17.284Z,21.10
2017-07-03T09:44:45.708Z,21.00
2017-07-03T09:47:14.229Z,21.00
2017-07-03T09:49:42.655Z,21.20
2017-07-03T09:52:11.174Z,21.40
2017-07-03T09:54:40.386Z,21.60
2017-07-03T09:57:08.816Z,21.60
2017-07-03T09:59:37.474Z,21.90
2017-07-03T10:02:05.891Z,21.90
2017-07-03T10:04:34.411Z,22.30
2017-07-03T10:07:03.614Z,22.90
2017-07-03T10:09:32.055Z,22.80
2017-07-03T10:12:00.487Z,22.70
2017-07-03T10:14:28.927Z,22.70
2017-07-03T10:16:57.375Z,22.50
2017-07-03T10:19:25.806Z,21.60
2017-07-03T10:21:55.056Z,21.40
2017-07-03T10:24:23.519Z,21.30
2017-07-03T10:26:52.009Z,21.50
2017-07-03T10:29:20.532Z,21.60
2017-07-03T10:31:48.969Z,21.40
2017-07-03T10:34:17.456Z,21.70
2017-07-03T10:36:45.988Z,21.70
2017-07-03T10:39:14.443Z,21.80
2017-07-03T10:41:43.557Z,22.10
2017-07-03T10:44:12.066Z,22.40
2017-07-03T10:46:41.308Z,22.30
2017-07-03T10:49:09.932Z,22.30
2017-07-03T10:51:38.371Z,22.50
2017-07-03T10:54:06.823Z,22.70
2017-07-03T10:56:35.255Z,22.70
2017-07-03T10:59:03.863Z,22.90
2017-07-03T11:01:32.970Z,22.80
2017-07-03T11:04:02.189Z,22.40
2017-07-03T11:06:30.606Z,22.30
2017-07-03T11:08:59.051Z,22.20
2017-07-03T11:11:27.478Z,22.70
2017-07-03T11:13:55.943Z,22.10
2017-07-03T11:16:24.387Z,22.60
2017-07-03T11:18:53.659Z,22.30
2017-07-03T11:21:22.280Z,22.30
2017-07-03T11:23:51.471Z,21.90
2017-07-03T11:26:20.775Z,21.80
2017-07-03T11:28:50.005Z,21.90
2017-07-03T11:31:18.558Z,22.30
2017-07-03T11:33:47.785Z,23.10
2017-07-03T11:36:16.222Z,23.00
2017-07-03T11:38:44.663Z,22.00
2017-07-03T11:41:13.483Z,21.90
2017-07-03T11:43:41.934Z,21.90
2017-07-03T11:46:10.348Z,21.60
2017-07-03T11:48:38.775Z,21.60
2017-07-03T11:51:07.416Z,22.10
2017-07-03T11:53:35.825Z,22.10
2017-07-03T11:56:05.036Z,22.60
2017-07-03T11:58:33.485Z,22.60
2017-07-03T12:01:02.123Z,24.00
2017-07-03T12:03:30.563Z,24.10
2017-07-03T12:05:59.779Z,23.60
2017-07-03T12:08:28.228Z,23.50
2017-07-03T12:10:56.704Z,24.00
2017-07-03T12:13:25.223Z,24.10
2017-07-03T12:15:54.451Z,24.00
2017-07-03T12:18:22.862Z,24.00
2017-07-03T12:20:51.358Z,24.30
2017-07-03T12:23:19.792Z,24.40
2017-07-03T12:25:48.260Z,24.90
2017-07-03T12:28:16.694Z,25.10
2017-07-03T12:30:45.245Z,24.70
2017-07-03T12:33:13.864Z,24.10
2017-07-03T12:35:42.403Z,24.20
2017-07-03T12:38:10.911Z,24.30
2017-07-03T12:40:39.335Z,24.30
2017-07-03T12:43:08.537Z,24.50
2017-07-03T12:45:36.983Z,24.50
2017-07-03T12:48:06.195Z,23.50
2017-07-03T12:50:34.638Z,23.40
2017-07-03T12:53:03.059Z,23.60
2017-07-03T12:55:31.534Z,24.00
2017-07-03T12:57:59.958Z,24.10
2017-07-03T13:00:29.187Z,24.30
2017-07-03T13:02:59.184Z,24.10
2017-07-03T13:05:27.639Z,23.70
2017-07-03T13:07:56.842Z,23.40
2017-07-03T13:10:26.046Z,23.40
2017-07-03T13:12:55.250Z,23.30
2017-07-03T13:15:24.462Z,23.80
2017-07-03T13:17:52.928Z,24.80
2017-07-03T13:20:22.144Z,24.50
2017-07-03T13:22:50.823Z,24.50
2017-07-03T13:25:19.258Z,24.70
2017-07-03T13:27:47.679Z,24.50
2017-07-03T13:30:16.899Z,25.40
2017-07-03T13:32:45.332Z,25.40
2017-07-03T13:35:13.843Z,25.40
2017-07-03T13:37:43.039Z,24.80
2017-07-03T13:40:12.447Z,24.00
2017-07-03T13:42:41.641Z,24.00
2017-07-03T13:45:10.851Z,23.70
2017-07-03T13:47:39.291Z,23.50
2017-07-03T13:50:07.525Z,23.50
2017-07-03T13:52:35.968Z,24.90
2017-07-03T13:55:04.547Z,24.80
2017-07-03T13:57:32.990Z,24.80
2017-07-03T14:00:01.563Z,25.20
2017-07-03T14:02:30.019Z,25.60
2017-07-03T14:04:58.463Z,26.50
2017-07-03T14:07:26.891Z,26.80
2017-07-03T14:09:55.329Z,26.50
2017-07-03T14:12:23.851Z,25.40
2017-07-03T14:14:53.156Z,24.60
2017-07-03T14:17:21.601Z,24.60
2017-07-03T14:19:50.119Z,25.60
2017-07-03T14:22:18.638Z,25.90
2017-07-03T14:24:47.045Z,26.40
2017-07-03T14:27:15.497Z,26.90
2017-07-03T14:29:43.931Z,27.00
2017-07-03T14:32:13.128Z,25.40
2017-07-03T14:34:42.343Z,25.30
2017-07-03T14:37:10.809Z,25.30
2017-07-03T14:39:39.274Z,25.40
2017-07-03T14:42:07.772Z,25.30
2017-07-03T14:44:36.982Z,24.70
2017-07-03T14:47:06.187Z,24.30
2017-07-03T14:49:34.616Z,24.30
2017-07-03T14:52:03.069Z,24.20
2017-07-03T14:54:31.493Z,24.00
2017-07-03T14:57:00.042Z,24.10
2017-07-03T14:59:28.487Z,24.90
2017-07-03T15:01:57.675Z,25.70
2017-07-03T15:04:26.139Z,26.10
2017-07-03T15:06:54.599Z,25.70
2017-07-03T15:09:23.033Z,25.40
2017-07-03T15:11:51.896Z,24.60
2017-07-03T15:14:20.348Z,25.20
2017-07-03T15:16:48.901Z,25.50
2017-07-03T15:19:17.331Z,25.20
2017-07-03T15:21:45.793Z,26.00
2017-07-03T15:24:14.636Z,26.80
2017-07-03T15:26:43.508Z,26.40
2017-07-03T15:29:12.271Z,25.20
2017-07-03T15:31:41.715Z,25.10
2017-07-03T15:34:10.580Z,25.60
2017-07-03T15:36:39.404Z,25.90
2017-07-03T15:39:08.211Z,26.50
2017-07-03T15:41:36.656Z,26.70
2017-07-03T15:44:05.103Z,26.90
2017-07-03T15:46:33.800Z,26.90
2017-07-03T15:49:02.271Z,27.30
2017-07-03T15:51:30.976Z,27.20
2017-07-03T15:53:59.420Z,27.00
2017-07-03T15:56:27.874Z,26.10
2017-07-03T15:58:56.310Z,26.00
2017-07-03T16:01:24.906Z,26.20
2017-07-03T16:03:53.388Z,26.70
2017-07-03T16:06:21.889Z,27.60
2017-07-03T16:08:50.734Z,27.70
2017-07-03T16:11:19.171Z,28.30
2017-07-03T16:13:48.308Z,28.30
2017-07-03T16:16:16.743Z,28.30
2017-07-03T16:18:45.188Z,27.70
2017-07-03T16:21:13.611Z,28.30
2017-07-03T16:23:42.447Z,28.40
2017-07-03T16:26:11.658Z,27.60
2017-07-03T16:28:40.483Z,26.80
2017-07-03T16:31:09.697Z,26.30
2017-07-03T16:33:38.198Z,27.10
2017-07-03T16:36:06.639Z,27.60
2017-07-03T16:38:35.492Z,27.90
2017-07-03T16:41:04.704Z,27.60
2017-07-03T16:43:33.582Z,26.90
2017-07-03T16:46:02.706Z,26.60
2017-07-03T16:48:31.555Z,26.90
2017-07-03T16:51:00.505Z,26.70
2017-07-03T16:53:29.726Z,25.90
2017-07-03T16:55:58.543Z,25.90
2017-07-03T16:58:27.379Z,26.30
2017-07-03T17:00:56.632Z,26.00
2017-07-03T17:03:25.472Z,26.10
2017-07-03T17:05:54.695Z,26.60
2017-07-03T17:08:23.552Z,26.40
2017-07-03T17:10:52.759Z,26.40
2017-07-03T17:13:21.595Z,26.70
2017-07-03T17:15:50.435Z,27.10
2017-07-03T17:18:18.879Z,26.60
2017-07-03T17:20:47.743Z,26.90
2017-07-03T17:23:16.588Z,26.90
2017-07-03T17:25:45.442Z,26.40
2017-07-03T17:28:14.639Z,26.80
2017-07-03T17:30:43.486Z,26.60
2017-07-03T17:33:12.699Z,26.60
2017-07-03T17:35:41.519Z,26.90
2017-07-03T17:38:10.387Z,26.90
2017-07-03T17:40:39.595Z,26.80
2017-07-03T17:43:08.807Z,27.10
2017-07-03T17:45:37.660Z,27.00
2017-07-03T17:48:06.489Z,26.80
2017-07-03T17:50:35.692Z,26.40
2017-07-03T17:53:04.572Z,25.90
2017-07-03T17:55:33.775Z,25.50
2017-07-03T17:58:02.706Z,25.00
2017-07-03T18:00:31.544Z,24.80
2017-07-03T18:03:00.748Z,24.40
2017-07-03T18:05:29.708Z,23.90
2017-07-03T18:07:58.671Z,23.30
2017-07-03T18:10:27.529Z,22.80
2017-07-03T18:12:56.378Z,22.80
2017-07-03T18:15:25.587Z,22.80
2017-07-03T18:17:54.527Z,22.70
2017-07-03T18:20:23.384Z,22.50
2017-07-03T18:22:52.621Z,22.40
2017-07-03T18:25:21.464Z,22.40
2017-07-03T18:27:50.669Z,22.10
2017-07-03T18:30:19.324Z,22.10
2017-07-03T18:32:47.755Z,21.90
2017-07-03T18:35:16.591Z,21.80
2017-07-03T18:37:45.425Z,21.60
2017-07-03T18:40:14.633Z,21.70
2017-07-03T18:42:43.470Z,21.60
2017-07-03T18:45:12.703Z,21.50
2017-07-03T18:47:41.931Z,21.40
2017-07-03T18:50:10.403Z,21.30
2017-07-03T18:52:39.656Z,21.30
2017-07-03T18:55:08.500Z,21.00
2017-07-03T18:57:37.677Z,21.00
2017-07-03T19:00:06.519Z,20.80
2017-07-03T19:02:35.729Z,20.60
2017-07-03T19:05:04.431Z,20.40
2017-07-03T19:07:32.908Z,20.20
2017-07-03T19:10:01.729Z,20.20
2017-07-03T19:12:30.575Z,20.10
2017-07-03T19:14:59.396Z,20.10
2017-07-03T19:17:27.848Z,19.90
2017-07-03T19:19:56.709Z,19.80
2017-07-03T19:22:25.542Z,19.50
2017-07-03T19:24:54.770Z,19.50
2017-07-03T19:27:23.614Z,19.50
2017-07-03T19:29:52.842Z,19.40
2017-07-03T19:32:22.592Z,19.40
2017-07-03T19:34:51.823Z,19.30
2017-07-03T19:37:20.644Z,19.30
2017-07-03T19:39:49.768Z,19.20
2017-07-03T19:42:18.980Z,19.10
2017-07-03T19:44:47.817Z,19.10
2017-07-03T19:47:17.084Z,19.10
2017-07-03T19:49:46.302Z,19.00
2017-07-03T19:52:14.406Z,19.00
2017-07-03T19:54:42.830Z,18.90
2017-07-03T19:57:12.056Z,18.80
2017-07-03T19:59:40.942Z,18.80
2017-07-03T20:02:09.772Z,18.70
2017-07-03T20:04:38.987Z,18.60
2017-07-03T20:07:07.887Z,18.50
2017-07-03T20:09:36.752Z,18.40
2017-07-03T20:12:05.988Z,18.30
2017-07-03T20:14:34.817Z,18.20
2017-07-03T20:17:03.644Z,18.10
2017-07-03T20:19:32.914Z,18.00
2017-07-03T20:22:01.748Z,18.00
2017-07-03T20:24:30.955Z,18.00
2017-07-03T20:27:00.169Z,17.90
2017-07-03T20:29:29.034Z,17.80
2017-07-03T20:31:57.858Z,17.80
2017-07-03T20:34:27.164Z,17.70
2017-07-03T20:36:55.984Z,17.60
2017-07-03T20:39:24.844Z,17.60
2017-07-03T20:41:53.660Z,17.50
2017-07-03T20:44:22.849Z,17.50
2017-07-03T20:46:51.708Z,17.30
2017-07-03T20:49:20.907Z,17.20
2017-07-03T20:51:50.117Z,17.10
2017-07-03T20:54:18.973Z,17.00
2017-07-03T20:56:47.820Z,17.00
2017-07-03T20:59:17.042Z,17.10
2017-07-03T21:01:45.869Z,17.20
2017-07-03T21:04:15.076Z,17.20
2017-07-03T21:06:43.903Z,17.20
2017-07-03T21:09:12.823Z,17.20
2017-07-03T21:11:42.023Z,17.10
2017-07-03T21:14:10.851Z,16.90
2017-07-03T21:16:42.615Z,17.00
2017-07-03T21:19:11.216Z,16.90
2017-07-03T21:21:40.431Z,16.90
2017-07-03T21:24:08.516Z,16.90
2017-07-03T21:26:36.939Z,16.90
2017-07-03T21:29:05.259Z,16.80
2017-07-03T21:31:33.716Z,16.80
2017-07-03T21:34:02.152Z,16.60
2017-07-03T21:36:30.588Z,16.60
2017-07-03T21:38:59.818Z,16.50
2017-07-03T21:41:28.259Z,16.40
2017-07-03T21:43:56.684Z,16.50
2017-07-03T21:46:25.172Z,16.50
2017-07-03T21:48:53.600Z,16.40
2017-07-03T21:51:22.046Z,16.40
2017-07-03T21:53:50.480Z,16.40
2017-07-03T21:56:18.920Z,16.30
2017-07-03T21:58:47.355Z,16.30
2017-07-03T22:01:16.531Z,16.20
2017-07-03T22:03:44.986Z,16.20
2017-07-03T22:06:13.424Z,16.10
2017-07-03T22:08:41.876Z,16.20
2017-07-03T22:11:10.592Z,16.10
2017-07-03T22:13:39.137Z,16.10
2017-07-03T22:16:07.656Z,16.10
2017-07-03T22:18:36.989Z,16.10
2017-07-03T22:21:05.436Z,16.10
2017-07-03T22:23:34.619Z,16.10
2017-07-03T22:26:03.820Z,16.00
2017-07-03T22:28:33.006Z,15.90
2017-07-03T22:31:01.441Z,15.90
2017-07-03T22:33:29.878Z,16.00
2017-07-03T22:35:59.068Z,15.80
2017-07-03T22:38:27.507Z,15.80
2017-07-03T22:40:55.947Z,15.80
2017-07-03T22:43:25.178Z,15.80
2017-07-03T22:45:53.654Z,15.70
2017-07-03T22:48:22.084Z,15.80
2017-07-03T22:50:50.514Z,15.70
2017-07-03T22:53:18.943Z,15.70
2017-07-03T22:55:47.498Z,15.90
2017-07-03T22:58:15.939Z,15.90
2017-07-03T23:00:45.151Z,16.10
2017-07-03T23:03:13.590Z,16.00
2017-07-03T23:05:42.070Z,16.20
2017-07-03T23:08:10.716Z,16.30
2017-07-03T23:10:40.615Z,16.30
2017-07-03T23:13:09.817Z,16.30
2017-07-03T23:15:38.266Z,16.20
2017-07-03T23:18:06.679Z,16.20
2017-07-03T23:20:35.146Z,16.30
2017-07-03T23:23:03.987Z,16.30
2017-07-03T23:25:32.470Z,16.30
2017-07-03T23:28:00.923Z,16.40
2017-07-03T23:30:28.660Z,16.40
2017-07-03T23:32:57.085Z,16.50
2017-07-03T23:35:25.539Z,16.60
2017-07-03T23:37:54.730Z,16.60
2017-07-03T23:40:23.932Z,16.70
2017-07-03T23:42:53.136Z,16.60
2017-07-03T23:45:22.326Z,16.60
2017-07-03T23:47:51.027Z,16.60
2017-07-03T23:50:20.333Z,16.60
2017-07-03T23:52:48.772Z,16.50
2017-07-03T23:55:17.196Z,16.50
2017-07-03T23:57:45.652Z,16.60
